createdAt,value
2023-03-13T00:00:02.729Z,1007.06
2023-03-13T00:01:01.061Z,1007.05
2023-03-13T00:02:01.120Z,1007.04
2023-03-13T00:03:01.091Z,1007.04
2023-03-13T00:04:01.109Z,1007.06
2023-03-13T00:05:01.172Z,1007.09
2023-03-13T00:06:01.149Z,1007.1
2023-03-13T00:07:01.177Z,1007.02
2023-03-13T00:08:01.396Z,1007.02
2023-03-13T00:09:01.138Z,1006.97
2023-03-13T00:10:01.144Z,1007.01
2023-03-13T00:11:01.133Z,1006.97
2023-03-13T00:12:01.354Z,1006.96
2023-03-13T00:13:01.063Z,1007.01
2023-03-13T00:14:01.160Z,1007.01
2023-03-13T00:15:01.063Z,1007.02
2023-03-13T00:16:01.475Z,1007.05
2023-03-13T00:17:02.120Z,1007.03
2023-03-13T00:18:01.088Z,1007.02
2023-03-13T00:19:01.087Z,1006.99
2023-03-13T00:20:01.087Z,1006.96
2023-03-13T00:21:01.102Z,1006.96
2023-03-13T00:22:01.144Z,1007.02
2023-03-13T00:23:01.124Z,1007.01
2023-03-13T00:24:01.149Z,1007.01
2023-03-13T00:25:01.291Z,1007
2023-03-13T00:26:01.129Z,1007.01
2023-03-13T00:27:01.352Z,1007
2023-03-13T00:28:01.808Z,1007.03
2023-03-13T00:29:01.166Z,1007.04
2023-03-13T00:30:01.048Z,1006.97
2023-03-13T00:31:01.585Z,1006.98
2023-03-13T00:32:01.159Z,1006.99
2023-03-13T00:33:01.166Z,1006.99
2023-03-13T00:34:01.141Z,1006.99
2023-03-13T00:35:01.085Z,1006.93
2023-03-13T00:36:01.175Z,1006.96
2023-03-13T00:37:01.100Z,1006.96
2023-03-13T00:38:01.117Z,1006.99
2023-03-13T00:39:01.506Z,1006.98
2023-03-13T00:40:01.119Z,1006.96
2023-03-13T00:41:01.120Z,1006.97
2023-03-13T00:42:01.150Z,1006.98
2023-03-13T00:43:01.167Z,1007.02
2023-03-13T00:44:00.876Z,1007.01
2023-03-13T00:45:00.626Z,1007.01
2023-03-13T00:46:00.629Z,1007.01
2023-03-13T00:47:00.616Z,1007.06
2023-03-13T00:48:00.247Z,1006.98
2023-03-13T00:48:59.901Z,1007.02
2023-03-13T00:49:59.526Z,1007
2023-03-13T00:51:03.958Z,1006.98
2023-03-13T00:52:01.094Z,1006.95
2023-03-13T00:53:01.100Z,1007.03
2023-03-13T00:54:01.105Z,1006.94
2023-03-13T00:55:01.513Z,1006.97
2023-03-13T00:56:07.662Z,1006.94
2023-03-13T00:57:01.123Z,1006.92
2023-03-13T00:58:00.863Z,1006.95
2023-03-13T00:59:01.148Z,1006.95
2023-03-13T01:00:00.534Z,1006.95
2023-03-13T01:01:10.300Z,1006.91
2023-03-13T01:02:01.536Z,1006.86
2023-03-13T01:03:02.269Z,1006.83
2023-03-13T01:04:01.816Z,1006.85
2023-03-13T01:05:02.209Z,1006.81
2023-03-13T01:06:13.791Z,1006.72
2023-03-13T01:07:01.128Z,1006.76
2023-03-13T01:08:01.102Z,1006.7
2023-03-13T01:09:01.064Z,1006.71
2023-03-13T01:10:01.417Z,1006.69
2023-03-13T01:11:16.952Z,1006.71
2023-03-13T01:12:02.423Z,1006.7
2023-03-13T01:13:01.131Z,1006.72
2023-03-13T01:14:01.317Z,1006.72
2023-03-13T01:15:01.154Z,1006.72
2023-03-13T01:16:01.194Z,1006.76
2023-03-13T01:17:01.147Z,1006.73
2023-03-13T01:18:01.184Z,1006.78
2023-03-13T01:19:01.662Z,1006.73
2023-03-13T01:20:01.178Z,1006.74
2023-03-13T01:21:01.246Z,1006.71
2023-03-13T01:22:01.078Z,1006.68
2023-03-13T01:23:01.122Z,1006.71
2023-03-13T01:24:04.655Z,1006.68
2023-03-13T01:25:01.120Z,1006.75
2023-03-13T01:26:01.128Z,1006.72
2023-03-13T01:27:01.480Z,1006.69
2023-03-13T01:28:01.194Z,1006.69
2023-03-13T01:29:00.913Z,1006.67
2023-03-13T01:30:01.343Z,1006.59
2023-03-13T01:31:01.242Z,1006.57
2023-03-13T01:32:01.141Z,1006.69
2023-03-13T01:33:01.784Z,1006.61
2023-03-13T01:34:01.164Z,1006.57
2023-03-13T01:35:01.879Z,1006.54
2023-03-13T01:36:02.026Z,1006.52
2023-03-13T01:37:01.069Z,1006.49
2023-03-13T01:38:01.084Z,1006.51
2023-03-13T01:39:01.115Z,1006.43
2023-03-13T01:40:01.115Z,1006.47
2023-03-13T01:41:01.097Z,1006.44
2023-03-13T01:42:01.512Z,1006.48
2023-03-13T01:43:01.138Z,1006.49
2023-03-13T01:44:01.136Z,1006.45
2023-03-13T01:45:01.410Z,1006.47
2023-03-13T01:46:01.216Z,1006.45
2023-03-13T01:47:01.380Z,1006.39
2023-03-13T01:48:01.970Z,1006.38
2023-03-13T01:49:01.036Z,1006.41
2023-03-13T01:50:01.321Z,1006.33
2023-03-13T01:51:01.318Z,1006.32
2023-03-13T01:52:01.197Z,1006.34
2023-03-13T01:53:01.475Z,1006.34
2023-03-13T01:54:01.091Z,1006.25
2023-03-13T01:55:01.110Z,1006.29
2023-03-13T01:56:01.110Z,1006.27
2023-03-13T01:57:01.066Z,1006.24
2023-03-13T01:58:00.799Z,1006.26
2023-03-13T01:59:00.395Z,1006.16
2023-03-13T01:59:59.999Z,1006.2
2023-03-13T02:00:59.675Z,1006.17
2023-03-13T02:02:01.867Z,1006.22
2023-03-13T02:03:01.219Z,1006.2
2023-03-13T02:04:01.148Z,1006.2
2023-03-13T02:05:01.046Z,1006.25
2023-03-13T02:06:01.064Z,1006.25
2023-03-13T02:07:01.109Z,1006.15
2023-03-13T02:08:01.445Z,1006.12
2023-03-13T02:09:00.876Z,1006.12
2023-03-13T02:10:01.130Z,1006.22
2023-03-13T02:11:01.088Z,1006.21
2023-03-13T02:12:01.797Z,1006.17
2023-03-13T02:13:01.994Z,1006.11
2023-03-13T02:14:01.928Z,1006.12
2023-03-13T02:15:01.129Z,1006.15
2023-03-13T02:16:01.336Z,1006.1
2023-03-13T02:17:01.983Z,1006.07
2023-03-13T02:18:01.517Z,1006.07
2023-03-13T02:19:01.130Z,1006.03
2023-03-13T02:20:01.153Z,1006.02
2023-03-13T02:21:01.156Z,1006.01
2023-03-13T02:22:01.145Z,1006.03
2023-03-13T02:23:01.160Z,1006.03
2023-03-13T02:24:01.060Z,1006.01
2023-03-13T02:25:01.060Z,1006
2023-03-13T02:26:01.067Z,1005.93
2023-03-13T02:27:01.387Z,1005.89
2023-03-13T02:28:01.473Z,1005.85
2023-03-13T02:29:02.268Z,1005.87
2023-03-13T02:30:01.846Z,1005.78
2023-03-13T02:31:02.201Z,1005.84
2023-03-13T02:32:03.714Z,1005.9
2023-03-13T02:33:01.944Z,1005.86
2023-03-13T02:34:01.131Z,1005.78
2023-03-13T02:35:01.121Z,1005.85
2023-03-13T02:36:01.356Z,1005.82
2023-03-13T02:37:06.728Z,1005.78
2023-03-13T02:38:01.056Z,1005.75
2023-03-13T02:39:01.149Z,1005.77
2023-03-13T02:40:01.171Z,1005.77
2023-03-13T02:41:01.059Z,1005.76
2023-03-13T02:42:09.320Z,1005.76
2023-03-13T02:43:00.647Z,1005.81
2023-03-13T02:44:00.279Z,1005.79
2023-03-13T02:45:00.217Z,1005.75
2023-03-13T02:46:00.216Z,1005.77
2023-03-13T02:47:10.951Z,1005.81
2023-03-13T02:48:00.919Z,1005.78
2023-03-13T02:49:01.237Z,1005.82
2023-03-13T02:50:02.256Z,1005.84
2023-03-13T02:51:02.279Z,1005.8
2023-03-13T02:52:13.429Z,1005.8
2023-03-13T02:53:02.536Z,1005.77
2023-03-13T02:54:01.175Z,1005.74
2023-03-13T02:55:01.150Z,1005.75
2023-03-13T02:56:01.163Z,1005.76
2023-03-13T02:57:16.112Z,1005.73
2023-03-13T02:58:01.464Z,1005.71
2023-03-13T02:59:01.093Z,1005.75
2023-03-13T03:00:01.104Z,1005.73
2023-03-13T03:01:01.196Z,1005.7
2023-03-13T03:02:01.094Z,1005.67
2023-03-13T03:03:01.113Z,1005.69
2023-03-13T03:04:01.085Z,1005.73
2023-03-13T03:05:01.609Z,1005.76
2023-03-13T03:06:02.062Z,1005.74
2023-03-13T03:07:01.634Z,1005.71
2023-03-13T03:08:01.133Z,1005.71
2023-03-13T03:09:00.826Z,1005.68
2023-03-13T03:10:00.427Z,1005.73
2023-03-13T03:11:00.012Z,1005.68
2023-03-13T03:11:59.617Z,1005.7
2023-03-13T03:13:01.834Z,1005.66
2023-03-13T03:14:02.390Z,1005.65
2023-03-13T03:15:01.755Z,1005.67
2023-03-13T03:16:01.158Z,1005.7
2023-03-13T03:17:01.096Z,1005.65
2023-03-13T03:18:01.129Z,1005.63
2023-03-13T03:19:01.418Z,1005.6
2023-03-13T03:20:01.208Z,1005.63
2023-03-13T03:21:01.239Z,1005.6
2023-03-13T03:22:01.484Z,1005.58
2023-03-13T03:23:01.057Z,1005.59
2023-03-13T03:24:01.148Z,1005.56
2023-03-13T03:25:01.151Z,1005.55
2023-03-13T03:26:01.145Z,1005.57
2023-03-13T03:27:01.166Z,1005.53
2023-03-13T03:28:01.174Z,1005.56
2023-03-13T03:29:01.490Z,1005.51
2023-03-13T03:30:01.755Z,1005.5
2023-03-13T03:31:01.448Z,1005.53
2023-03-13T03:32:01.199Z,1005.51
2023-03-13T03:33:01.217Z,1005.46
2023-03-13T03:34:01.105Z,1005.46
2023-03-13T03:35:01.087Z,1005.45
2023-03-13T03:36:01.216Z,1005.48
2023-03-13T03:37:01.149Z,1005.47
2023-03-13T03:38:01.458Z,1005.41
2023-03-13T03:39:01.243Z,1005.45
2023-03-13T03:40:01.119Z,1005.4
2023-03-13T03:41:01.128Z,1005.41
2023-03-13T03:42:01.184Z,1005.39
2023-03-13T03:43:00.850Z,1005.43
2023-03-13T03:44:00.525Z,1005.4
2023-03-13T03:45:00.225Z,1005.44
2023-03-13T03:46:00.251Z,1005.45
2023-03-13T03:47:00.029Z,1005.35
2023-03-13T03:47:59.768Z,1005.36
2023-03-13T03:49:01.776Z,1005.34
2023-03-13T03:50:01.111Z,1005.33
2023-03-13T03:51:01.071Z,1005.3
2023-03-13T03:52:01.102Z,1005.29
2023-03-13T03:53:01.109Z,1005.27
2023-03-13T03:54:01.249Z,1005.27
2023-03-13T03:55:01.247Z,1005.27
2023-03-13T03:56:01.507Z,1005.26
2023-03-13T03:57:01.150Z,1005.25
2023-03-13T03:58:01.068Z,1005.18
2023-03-13T03:59:01.267Z,1005.18
2023-03-13T04:00:01.409Z,1005.21
2023-03-13T04:01:01.995Z,1005.2
2023-03-13T04:02:01.131Z,1005.13
2023-03-13T04:03:01.149Z,1005.13
2023-03-13T04:04:03.954Z,1005.11
2023-03-13T04:05:02.099Z,1005.1
2023-03-13T04:06:03.314Z,1005.13
2023-03-13T04:07:01.773Z,1005.08
2023-03-13T04:08:02.560Z,1005.11
2023-03-13T04:09:01.796Z,1005.1
2023-03-13T04:10:01.176Z,1005.08
2023-03-13T04:11:01.129Z,1005.04
2023-03-13T04:12:01.139Z,1005.02
2023-03-13T04:13:01.756Z,1004.98
2023-03-13T04:14:01.162Z,1004.97
2023-03-13T04:15:01.169Z,1004.95
2023-03-13T04:16:01.158Z,1004.93
2023-03-13T04:17:05.294Z,1004.9
2023-03-13T04:18:05.044Z,1004.91
2023-03-13T04:19:02.539Z,1004.89
2023-03-13T04:20:01.059Z,1004.88
2023-03-13T04:21:01.473Z,1004.89
2023-03-13T04:22:01.209Z,1004.81
2023-03-13T04:23:07.807Z,1004.86
2023-03-13T04:24:01.241Z,1004.84
2023-03-13T04:25:01.575Z,1004.8
2023-03-13T04:26:01.150Z,1004.71
2023-03-13T04:27:01.134Z,1004.67
2023-03-13T04:28:10.792Z,1004.67
2023-03-13T04:29:01.396Z,1004.67
2023-03-13T04:30:00.558Z,1004.72
2023-03-13T04:31:00.290Z,1004.65
2023-03-13T04:32:00.236Z,1004.63
2023-03-13T04:33:12.541Z,1004.65
2023-03-13T04:34:02.041Z,1004.6
2023-03-13T04:35:01.188Z,1004.59
2023-03-13T04:36:01.120Z,1004.56
2023-03-13T04:37:01.172Z,1004.52
2023-03-13T04:38:15.387Z,1004.56
2023-03-13T04:39:01.084Z,1004.49
2023-03-13T04:40:01.462Z,1004.48
2023-03-13T04:41:01.115Z,1004.41
2023-03-13T04:42:01.121Z,1004.38
2023-03-13T04:43:01.136Z,1004.4
2023-03-13T04:44:01.144Z,1004.42
2023-03-13T04:45:01.137Z,1004.39
2023-03-13T04:46:01.182Z,1004.39
2023-03-13T04:47:01.197Z,1004.36
2023-03-13T04:48:01.958Z,1004.33
2023-03-13T04:49:01.550Z,1004.28
2023-03-13T04:50:01.189Z,1004.25
2023-03-13T04:51:01.065Z,1004.2
2023-03-13T04:52:01.388Z,1004.21
2023-03-13T04:53:01.085Z,1004.19
2023-03-13T04:54:01.002Z,1004.16
2023-03-13T04:55:01.096Z,1004.09
2023-03-13T04:56:01.101Z,1004.14
2023-03-13T04:57:01.113Z,1004.12
2023-03-13T04:58:01.124Z,1004.06
2023-03-13T04:59:01.526Z,1004.09
2023-03-13T05:00:01.984Z,1004.04
2023-03-13T05:01:01.771Z,1004.01
2023-03-13T05:02:01.356Z,1004.05
2023-03-13T05:03:02.962Z,1003.99
2023-03-13T05:04:02.496Z,1003.94
2023-03-13T05:05:01.194Z,1003.95
2023-03-13T05:06:01.177Z,1003.95
2023-03-13T05:07:01.073Z,1003.86
2023-03-13T05:08:01.396Z,1003.82
2023-03-13T05:09:00.682Z,1003.8
2023-03-13T05:10:00.268Z,1003.74
2023-03-13T05:10:59.957Z,1003.77
2023-03-13T05:11:59.555Z,1003.77
2023-03-13T05:13:01.773Z,1003.71
2023-03-13T05:14:01.922Z,1003.73
2023-03-13T05:15:01.842Z,1003.64
2023-03-13T05:16:01.567Z,1003.66
2023-03-13T05:17:01.178Z,1003.68
2023-03-13T05:18:02.583Z,1003.67
2023-03-13T05:19:01.970Z,1003.66
2023-03-13T05:20:01.192Z,1003.65
2023-03-13T05:21:01.162Z,1003.65
2023-03-13T05:22:01.176Z,1003.64
2023-03-13T05:23:01.279Z,1003.65
2023-03-13T05:24:02.798Z,1003.64
2023-03-13T05:25:02.904Z,1003.62
2023-03-13T05:26:02.106Z,1003.66
2023-03-13T05:27:01.108Z,1003.62
2023-03-13T05:28:01.241Z,1003.62
2023-03-13T05:29:01.124Z,1003.62
2023-03-13T05:30:01.571Z,1003.56
2023-03-13T05:31:01.043Z,1003.62
2023-03-13T05:32:01.529Z,1003.56
2023-03-13T05:33:01.589Z,1003.54
2023-03-13T05:34:01.044Z,1003.58
2023-03-13T05:35:01.470Z,1003.56
2023-03-13T05:36:00.986Z,1003.57
2023-03-13T05:37:00.699Z,1003.53
2023-03-13T05:38:00.515Z,1003.59
2023-03-13T05:39:00.158Z,1003.53
2023-03-13T05:39:59.857Z,1003.5
2023-03-13T05:41:01.572Z,1003.45
2023-03-13T05:42:01.329Z,1003.47
2023-03-13T05:43:01.218Z,1003.46
2023-03-13T05:44:01.104Z,1003.45
2023-03-13T05:45:01.076Z,1003.45
2023-03-13T05:46:01.300Z,1003.45
2023-03-13T05:47:02.974Z,1003.43
2023-03-13T05:48:01.130Z,1003.36
2023-03-13T05:49:01.131Z,1003.38
2023-03-13T05:50:01.187Z,1003.32
2023-03-13T05:51:01.290Z,1003.36
2023-03-13T05:52:01.416Z,1003.37
2023-03-13T05:53:01.657Z,1003.33
2023-03-13T05:54:01.211Z,1003.24
2023-03-13T05:55:01.194Z,1003.2
2023-03-13T05:56:00.966Z,1003.17
2023-03-13T05:57:01.129Z,1003.19
2023-03-13T05:58:01.065Z,1003.16
2023-03-13T05:59:00.762Z,1003.13
2023-03-13T06:00:00.720Z,1003.16
2023-03-13T06:01:00.851Z,1003.15
2023-03-13T06:02:01.495Z,1003.13
2023-03-13T06:03:01.172Z,1003.07
2023-03-13T06:04:02.986Z,1003.1
2023-03-13T06:05:01.533Z,1003.15
2023-03-13T06:06:01.132Z,1003.12
2023-03-13T06:07:01.174Z,1003.1
2023-03-13T06:08:01.132Z,1003.09
2023-03-13T06:09:05.290Z,1003.06
2023-03-13T06:10:01.450Z,1003.02
2023-03-13T06:11:01.275Z,1003.1
2023-03-13T06:12:02.254Z,1003.01
2023-03-13T06:13:13.756Z,1002.99
2023-03-13T06:14:08.430Z,1003.03
2023-03-13T06:15:00.545Z,1003.04
2023-03-13T06:16:00.302Z,1002.99
2023-03-13T06:17:00.081Z,1002.94
2023-03-13T06:17:59.978Z,1002.97
2023-03-13T06:19:10.265Z,1002.95
2023-03-13T06:20:01.869Z,1002.89
2023-03-13T06:21:01.645Z,1002.86
2023-03-13T06:22:01.171Z,1002.83
2023-03-13T06:23:00.946Z,1002.84
2023-03-13T06:24:14.201Z,1002.78
2023-03-13T06:25:01.141Z,1002.79
2023-03-13T06:26:01.143Z,1002.74
2023-03-13T06:27:01.159Z,1002.77
2023-03-13T06:28:01.182Z,1002.69
2023-03-13T06:29:16.452Z,1002.69
2023-03-13T06:30:01.619Z,1002.63
2023-03-13T06:31:01.172Z,1002.68
2023-03-13T06:32:01.223Z,1002.67
2023-03-13T06:33:01.179Z,1002.7
2023-03-13T06:34:01.065Z,1002.67
2023-03-13T06:35:01.118Z,1002.65
2023-03-13T06:36:01.158Z,1002.6
2023-03-13T06:37:01.417Z,1002.61
2023-03-13T06:38:01.118Z,1002.64
2023-03-13T06:39:01.981Z,1002.6
2023-03-13T06:40:01.847Z,1002.58
2023-03-13T06:41:00.733Z,1002.65
2023-03-13T06:42:00.384Z,1002.61
2023-03-13T06:43:00.443Z,1002.57
2023-03-13T06:44:00.053Z,1002.57
2023-03-13T06:44:59.726Z,1002.59
2023-03-13T06:46:01.761Z,1002.51
2023-03-13T06:47:01.131Z,1002.5
2023-03-13T06:48:01.080Z,1002.49
2023-03-13T06:49:01.095Z,1002.51
2023-03-13T06:50:01.104Z,1002.5
2023-03-13T06:51:01.113Z,1002.54
2023-03-13T06:52:01.256Z,1002.5
2023-03-13T06:53:01.111Z,1002.55
2023-03-13T06:54:01.123Z,1002.53
2023-03-13T06:55:01.114Z,1002.51
2023-03-13T06:56:01.518Z,1002.46
2023-03-13T06:57:01.168Z,1002.45
2023-03-13T06:58:01.130Z,1002.44
2023-03-13T06:59:01.149Z,1002.41
2023-03-13T07:00:01.156Z,1002.37
2023-03-13T07:01:01.293Z,1002.36
2023-03-13T07:02:01.064Z,1002.35
2023-03-13T07:03:01.075Z,1002.33
2023-03-13T07:04:01.170Z,1002.31
2023-03-13T07:05:01.098Z,1002.3
2023-03-13T07:06:01.110Z,1002.3
2023-03-13T07:07:01.104Z,1002.2
2023-03-13T07:08:01.108Z,1002.2
2023-03-13T07:09:01.123Z,1002.15
2023-03-13T07:10:01.074Z,1002.18
2023-03-13T07:11:01.069Z,1002.11
2023-03-13T07:12:01.070Z,1002.09
2023-03-13T07:13:01.502Z,1002.06
2023-03-13T07:14:15.945Z,1002.06
2023-03-13T07:15:01.471Z,1002
2023-03-13T07:16:01.908Z,1001.98
2023-03-13T07:17:03.835Z,1001.96
2023-03-13T07:18:01.782Z,1002.01
2023-03-13T07:19:01.789Z,1001.98
2023-03-13T07:20:01.714Z,1001.93
2023-03-13T07:21:01.643Z,1001.89
2023-03-13T07:22:01.538Z,1001.89
2023-03-13T07:23:01.242Z,1001.87
2023-03-13T07:24:02.352Z,1001.87
2023-03-13T07:25:01.494Z,1001.81
2023-03-13T07:26:01.130Z,1001.79
2023-03-13T07:27:07.170Z,1001.77
2023-03-13T07:28:01.139Z,1001.77
2023-03-13T07:29:01.143Z,1001.78
2023-03-13T07:30:01.581Z,1001.73
2023-03-13T07:31:01.592Z,1001.73
2023-03-13T07:32:02.235Z,1001.77
2023-03-13T07:33:01.672Z,1001.79
2023-03-13T07:34:01.760Z,1001.81
2023-03-13T07:35:01.383Z,1001.78
2023-03-13T07:36:02.149Z,1001.78
2023-03-13T07:37:01.448Z,1001.76
2023-03-13T07:38:01.464Z,1001.78
2023-03-13T07:39:01.479Z,1001.78
2023-03-13T07:40:01.090Z,1001.77
2023-03-13T07:41:01.945Z,1001.79
2023-03-13T07:42:01.532Z,1001.76
2023-03-13T07:43:00.703Z,1001.7
2023-03-13T07:44:00.427Z,1001.79
2023-03-13T07:45:01.246Z,1001.68
2023-03-13T07:46:01.525Z,1001.7
2023-03-13T07:47:01.843Z,1001.65
2023-03-13T07:48:01.385Z,1001.72
2023-03-13T07:49:02.219Z,1001.66
2023-03-13T07:50:03.895Z,1001.62
2023-03-13T07:51:01.097Z,1001.67
2023-03-13T07:52:01.086Z,1001.68
2023-03-13T07:53:01.161Z,1001.64
2023-03-13T07:54:01.893Z,1001.67
2023-03-13T07:55:06.662Z,1001.65
2023-03-13T07:56:01.144Z,1001.64
2023-03-13T07:57:00.755Z,1001.64
2023-03-13T07:58:00.397Z,1001.6
2023-03-13T07:58:59.979Z,1001.58
2023-03-13T08:00:08.275Z,1001.53
2023-03-13T08:01:01.125Z,1001.5
2023-03-13T08:02:01.167Z,1001.53
2023-03-13T08:03:01.260Z,1001.48
2023-03-13T08:04:01.073Z,1001.5
2023-03-13T08:05:11.447Z,1001.49
2023-03-13T08:06:01.463Z,1001.46
2023-03-13T08:07:01.176Z,1001.48
2023-03-13T08:08:01.076Z,1001.44
2023-03-13T08:09:01.087Z,1001.45
2023-03-13T08:10:13.483Z,1001.47
2023-03-13T08:11:01.088Z,1001.56
2023-03-13T08:12:01.122Z,1001.53
2023-03-13T08:13:01.830Z,1001.55
2023-03-13T08:14:01.415Z,1001.53
2023-03-13T08:15:14.952Z,1001.51
2023-03-13T08:16:01.133Z,1001.49
2023-03-13T08:17:01.589Z,1001.47
2023-03-13T08:18:01.525Z,1001.49
2023-03-13T08:19:02.584Z,1001.55
2023-03-13T08:20:01.271Z,1001.51
2023-03-13T08:21:02.346Z,1001.49
2023-03-13T08:22:01.159Z,1001.49
2023-03-13T08:23:01.156Z,1001.49
2023-03-13T08:24:01.066Z,1001.48
2023-03-13T08:25:01.103Z,1001.55
2023-03-13T08:26:01.323Z,1001.53
2023-03-13T08:27:01.332Z,1001.56
2023-03-13T08:28:02.623Z,1001.52
2023-03-13T08:29:02.012Z,1001.54
2023-03-13T08:30:02.150Z,1001.51
2023-03-13T08:31:02.503Z,1001.52
2023-03-13T08:32:02.239Z,1001.5
2023-03-13T08:33:01.233Z,1001.49
2023-03-13T08:34:01.148Z,1001.53
2023-03-13T08:35:01.142Z,1001.45
2023-03-13T08:36:00.873Z,1001.43
2023-03-13T08:37:01.535Z,1001.42
2023-03-13T08:38:01.161Z,1001.41
2023-03-13T08:39:01.050Z,1001.43
2023-03-13T08:40:01.074Z,1001.31
2023-03-13T08:41:01.070Z,1001.32
2023-03-13T08:42:01.116Z,1001.25
2023-03-13T08:43:01.092Z,1001.21
2023-03-13T08:44:01.213Z,1001.2
2023-03-13T08:45:01.300Z,1001.18
2023-03-13T08:46:01.604Z,1001.17
2023-03-13T08:47:01.127Z,1001.11
2023-03-13T08:48:01.804Z,1001.1
2023-03-13T08:49:01.132Z,1001.08
2023-03-13T08:50:01.213Z,1001.04
2023-03-13T08:51:01.202Z,1001.08
2023-03-13T08:52:01.242Z,1001.06
2023-03-13T08:53:01.178Z,1001.01
2023-03-13T08:54:01.155Z,1001
2023-03-13T08:55:01.186Z,1000.96
2023-03-13T08:56:00.869Z,1001.04
2023-03-13T08:57:01.103Z,1001.01
2023-03-13T08:58:01.083Z,1001
2023-03-13T08:59:01.139Z,1000.98
2023-03-13T09:00:01.133Z,1000.97
2023-03-13T09:01:01.194Z,1000.98
2023-03-13T09:02:01.330Z,1000.98
2023-03-13T09:03:01.060Z,1001.06
2023-03-13T09:04:03.908Z,1001.03
2023-03-13T09:05:01.063Z,1001.01
2023-03-13T09:06:01.165Z,1001.01
2023-03-13T09:07:01.139Z,1001.04
2023-03-13T09:08:01.148Z,1000.98
2023-03-13T09:09:01.163Z,1000.97
2023-03-13T09:10:01.234Z,1000.92
2023-03-13T09:11:01.210Z,1000.96
2023-03-13T09:12:02.199Z,1000.92
2023-03-13T09:13:01.882Z,1000.92
2023-03-13T09:14:02.514Z,1000.76
2023-03-13T09:15:01.096Z,1000.84
2023-03-13T09:16:00.911Z,1000.81
2023-03-13T09:17:00.696Z,1000.84
2023-03-13T09:18:00.507Z,1000.83
2023-03-13T09:19:00.253Z,1000.76
2023-03-13T09:20:01.194Z,1000.83
2023-03-13T09:21:01.182Z,1000.86
2023-03-13T09:22:01.958Z,1000.85
2023-03-13T09:23:01.191Z,1000.93
2023-03-13T09:24:00.655Z,1000.93
2023-03-13T09:25:00.550Z,1000.87
2023-03-13T09:26:00.173Z,1000.75
2023-03-13T09:27:01.812Z,1000.77
2023-03-13T09:28:01.072Z,1000.75
2023-03-13T09:29:08.080Z,1000.72
2023-03-13T09:30:01.787Z,1000.74
2023-03-13T09:31:01.222Z,1000.74
2023-03-13T09:32:01.227Z,1000.77
2023-03-13T09:33:01.370Z,1000.7
2023-03-13T09:34:01.124Z,1000.75
2023-03-13T09:35:01.141Z,1000.76
2023-03-13T09:36:04.189Z,1000.66
2023-03-13T09:37:02.111Z,1000.67
2023-03-13T09:38:01.120Z,1000.62
2023-03-13T09:39:01.182Z,1000.59
2023-03-13T09:40:01.302Z,1000.77
2023-03-13T09:41:07.379Z,1000.82
2023-03-13T09:42:01.153Z,1000.71
2023-03-13T09:43:01.153Z,1000.65
2023-03-13T09:44:01.091Z,1000.6
2023-03-13T09:45:01.093Z,1000.55
2023-03-13T09:46:10.483Z,1000.55
2023-03-13T09:47:01.310Z,1000.54
2023-03-13T09:48:01.187Z,1000.58
2023-03-13T09:49:01.795Z,1000.61
2023-03-13T09:50:01.067Z,1000.59
2023-03-13T09:51:14.698Z,1000.58
2023-03-13T09:52:01.201Z,1000.53
2023-03-13T09:53:01.233Z,1000.53
2023-03-13T09:54:01.245Z,1000.5
2023-03-13T09:55:01.451Z,1000.53
2023-03-13T09:56:15.869Z,1000.41
2023-03-13T09:57:02.169Z,1000.41
2023-03-13T09:58:01.203Z,1000.38
2023-03-13T09:59:01.097Z,1000.35
2023-03-13T10:00:01.144Z,1000.36
2023-03-13T10:01:01.093Z,1000.38
2023-03-13T10:02:01.164Z,1000.41
2023-03-13T10:03:01.958Z,1000.41
2023-03-13T10:04:01.157Z,1000.36
2023-03-13T10:05:01.108Z,1000.4
2023-03-13T10:06:01.430Z,1000.4
2023-03-13T10:07:01.063Z,1000.4
2023-03-13T10:08:01.143Z,1000.4
2023-03-13T10:09:01.115Z,1000.47
2023-03-13T10:10:01.189Z,1000.39
2023-03-13T10:11:01.348Z,1000.37
2023-03-13T10:12:01.525Z,1000.45
2023-03-13T10:13:01.280Z,1000.49
2023-03-13T10:14:01.051Z,1000.51
2023-03-13T10:15:00.745Z,1000.43
2023-03-13T10:16:00.508Z,1000.42
2023-03-13T10:17:00.279Z,1000.5
2023-03-13T10:18:00.033Z,1000.53
2023-03-13T10:18:59.958Z,1000.57
2023-03-13T10:19:59.953Z,1000.54
2023-03-13T10:20:59.636Z,1000.53
2023-03-13T10:22:01.389Z,1000.59
2023-03-13T10:23:02.362Z,1000.56
2023-03-13T10:24:02.384Z,1000.6
2023-03-13T10:25:02.143Z,1000.55
2023-03-13T10:26:01.725Z,1000.63
2023-03-13T10:27:01.116Z,1000.53
2023-03-13T10:28:01.326Z,1000.53
2023-03-13T10:29:01.541Z,1000.48
2023-03-13T10:30:01.184Z,1000.53
2023-03-13T10:31:02.270Z,1000.58
2023-03-13T10:32:01.182Z,1000.58
2023-03-13T10:33:01.186Z,1000.46
2023-03-13T10:34:01.065Z,1000.45
2023-03-13T10:35:01.104Z,1000.49
2023-03-13T10:36:00.861Z,1000.41
2023-03-13T10:37:01.100Z,1000.45
2023-03-13T10:38:01.136Z,1000.5
2023-03-13T10:39:01.103Z,1000.56
2023-03-13T10:40:01.111Z,1000.53
2023-03-13T10:41:01.167Z,1000.53
2023-03-13T10:42:01.115Z,1000.53
2023-03-13T10:43:01.133Z,1000.64
2023-03-13T10:44:01.196Z,1000.56
2023-03-13T10:45:01.530Z,1000.59
2023-03-13T10:46:02.046Z,1000.57
2023-03-13T10:47:01.213Z,1000.62
2023-03-13T10:48:01.172Z,1000.56
2023-03-13T10:49:01.099Z,1000.53
2023-03-13T10:50:01.159Z,1000.58
2023-03-13T10:51:02.453Z,1000.5
2023-03-13T10:52:01.420Z,1000.54
2023-03-13T10:53:01.487Z,1000.49
2023-03-13T10:54:02.222Z,1000.54
2023-03-13T10:55:02.330Z,1000.51
2023-03-13T10:56:00.911Z,1000.52
2023-03-13T10:57:01.116Z,1000.49
2023-03-13T10:58:01.128Z,1000.56
2023-03-13T10:59:01.130Z,1000.45
2023-03-13T11:00:03.799Z,1000.54
2023-03-13T11:01:02.571Z,1000.36
2023-03-13T11:02:01.206Z,1000.32
2023-03-13T11:03:01.284Z,1000.4
2023-03-13T11:04:01.214Z,1000.33
2023-03-13T11:05:02.098Z,1000.32
2023-03-13T11:06:01.097Z,1000.32
2023-03-13T11:07:01.081Z,1000.32
2023-03-13T11:08:01.195Z,1000.37
2023-03-13T11:09:01.114Z,1000.39
2023-03-13T11:10:01.161Z,1000.28
2023-03-13T11:11:01.615Z,1000.29
2023-03-13T11:12:02.768Z,1000.33
2023-03-13T11:13:01.795Z,1000.3
2023-03-13T11:14:01.127Z,1000.31
2023-03-13T11:15:01.419Z,1000.26
2023-03-13T11:16:01.428Z,1000.24
2023-03-13T11:17:06.891Z,1000.23
2023-03-13T11:18:01.205Z,1000.22
2023-03-13T11:19:01.165Z,1000.18
2023-03-13T11:20:01.485Z,1000.18
2023-03-13T11:21:15.940Z,1000.23
2023-03-13T11:22:09.656Z,1000.17
2023-03-13T11:23:01.079Z,1000.15
2023-03-13T11:24:01.211Z,1000.1
2023-03-13T11:25:01.410Z,1000.11
2023-03-13T11:26:02.175Z,1000.09
2023-03-13T11:27:12.666Z,1000.01
2023-03-13T11:28:01.314Z,1000.03
2023-03-13T11:29:01.136Z,1000.02
2023-03-13T11:30:01.173Z,999.98
2023-03-13T11:31:01.163Z,999.91
2023-03-13T11:32:15.542Z,999.98
2023-03-13T11:33:01.530Z,999.87
2023-03-13T11:34:01.530Z,999.88
2023-03-13T11:35:01.275Z,999.82
2023-03-13T11:36:01.230Z,999.8
2023-03-13T11:37:00.952Z,999.79
2023-03-13T11:38:01.190Z,999.77
2023-03-13T11:39:01.083Z,999.78
2023-03-13T11:40:01.425Z,999.7
2023-03-13T11:41:01.141Z,999.66
2023-03-13T11:42:01.160Z,999.67
2023-03-13T11:43:03.361Z,999.63
2023-03-13T11:44:02.063Z,999.56
2023-03-13T11:45:01.850Z,999.55
2023-03-13T11:46:01.229Z,999.49
2023-03-13T11:47:01.875Z,999.48
2023-03-13T11:48:02.026Z,999.45
2023-03-13T11:49:01.128Z,999.43
2023-03-13T11:50:01.148Z,999.41
2023-03-13T11:51:01.192Z,999.36
2023-03-13T11:52:01.147Z,999.3
2023-03-13T11:53:01.582Z,999.35
2023-03-13T11:54:05.098Z,999.39
2023-03-13T11:55:01.070Z,999.32
2023-03-13T11:56:01.092Z,999.25
2023-03-13T11:57:00.867Z,999.37
2023-03-13T11:58:00.462Z,999.41
2023-03-13T11:59:00.321Z,999.42
2023-03-13T12:00:00.179Z,999.32
2023-03-13T12:01:00.271Z,999.31
2023-03-13T12:02:00.036Z,999.29
2023-03-13T12:02:59.776Z,999.29
2023-03-13T12:04:01.522Z,999.28
2023-03-13T12:05:01.243Z,999.28
2023-03-13T12:06:01.180Z,999.2
2023-03-13T12:07:03.067Z,999.21
2023-03-13T12:08:01.589Z,999.15
2023-03-13T12:09:01.545Z,999.2